Time;durP1;ratioP1;P1;durP2;ratioP2;P2;SDS_P1;SDS_P2;PMS_P1;PMS_P2;Temp;Humidity;BMP_temperature;BMP_pressure;BME280_temperature;BME280_humidity;BME280_pressure;Samples;Min_cycle;Max_cycle;Signal;HPM_P1;HPM_P2
2022/07/11 00:00:06;;;;;;;6.93;4.50;;;17.00;99.90;;;;;;5018883;28;20499;-64
2022/07/11 00:02:34;;;;;;;4.50;4.10;;;17.00;99.90;;;;;;5018950;28;20993;-64
2022/07/11 00:05:03;;;;;;;4.80;4.30;;;17.00;99.90;;;;;;5019086;28;20574;-64
2022/07/11 00:07:30;;;;;;;5.73;4.37;;;17.00;99.90;;;;;;5018662;28;20529;-64
2022/07/11 00:09:58;;;;;;;6.00;4.40;;;17.00;99.90;;;;;;5019116;28;20503;-64
2022/07/11 00:12:26;;;;;;;4.53;4.13;;;17.00;99.90;;;;;;5018900;28;20459;-64
2022/07/11 00:14:54;;;;;;;6.60;4.10;;;17.00;99.90;;;;;;5019138;28;20468;-64
2022/07/11 00:17:21;;;;;;;6.53;4.87;;;17.10;99.90;;;;;;5018779;28;20558;-64
2022/07/11 00:19:48;;;;;;;5.00;4.50;;;16.90;99.90;;;;;;5018145;28;20476;-64
2022/07/11 00:22:18;;;;;;;5.10;4.70;;;16.90;99.90;;;;;;5018754;28;20468;-64
2022/07/11 00:24:50;;;;;;;5.10;4.67;;;17.00;99.90;;;;;;5018549;28;20541;-64
2022/07/11 00:27:18;;;;;;;6.20;5.40;;;16.90;99.90;;;;;;5018651;28;20467;-64
2022/07/11 00:29:45;;;;;;;6.43;5.00;;;16.90;99.90;;;;;;5018258;28;20931;-64
2022/07/11 00:32:12;;;;;;;7.63;5.20;;;16.90;99.90;;;;;;5018397;28;20487;-63
2022/07/11 00:34:39;;;;;;;5.63;4.80;;;16.80;99.90;;;;;;5018061;28;20952;-64
2022/07/11 00:37:06;;;;;;;7.13;4.53;;;16.80;1.00;;;;;;5018486;28;20492;-64
2022/07/11 00:39:38;;;;;;;6.87;5.57;;;16.80;1.00;;;;;;5018133;28;20859;-64
2022/07/11 00:42:06;;;;;;;6.63;4.17;;;16.80;1.00;;;;;;5018014;28;20446;-64
2022/07/11 00:44:33;;;;;;;5.53;4.50;;;16.70;1.00;;;;;;5018262;28;20795;-64
2022/07/11 00:47:04;;;;;;;4.67;4.23;;;16.70;1.00;;;;;;5018288;28;20470;-63
2022/07/11 00:49:31;;;;;;;6.63;4.90;;;16.70;1.00;;;;;;5017766;28;20554;-64
2022/07/11 00:51:59;;;;;;;8.73;4.90;;;16.70;1.00;;;;;;5017308;28;20798;-63
2022/07/11 00:54:30;;;;;;;6.33;5.03;;;16.70;1.00;;;;;;5017734;28;20519;-64
2022/07/11 00:56:59;;;;;;;5.37;4.87;;;16.60;1.00;;;;;;5018223;28;20918;-64
2022/07/11 00:59:28;;;;;;;6.40;5.33;;;16.60;1.00;;;;;;5018007;28;20492;-64
2022/07/11 01:01:56;;;;;;;6.00;5.20;;;16.60;1.00;;;;;;5017292;28;20893;-63
2022/07/11 01:04:23;;;;;;;4.77;4.37;;;16.60;1.00;;;;;;5017410;28;20472;-64
2022/07/11 01:06:50;;;;;;;5.70;4.97;;;16.50;1.00;;;;;;5017871;28;20439;-64
2022/07/11 01:09:17;;;;;;;7.03;4.40;;;16.50;1.00;;;;;;5017720;28;20527;-64
2022/07/11 01:11:48;;;;;;;6.73;5.90;;;16.50;1.00;;;;;;5017689;28;20588;-64
2022/07/11 01:14:20;;;;;;;6.40;4.80;;;16.50;1.00;;;;;;5017490;28;20765;-64
2022/07/11 01:16:47;;;;;;;6.60;5.00;;;16.50;1.00;;;;;;5017828;28;20580;-64
2022/07/11 01:19:19;;;;;;;7.00;5.30;;;16.50;1.00;;;;;;5017633;28;20467;-64
2022/07/11 01:21:51;;;;;;;5.70;5.07;;;16.50;1.00;;;;;;5017404;28;20487;-64
2022/07/11 01:24:25;;;;;;;5.50;4.93;;;16.50;1.00;;;;;;5017253;28;20826;-64
2022/07/11 01:26:52;;;;;;;5.80;5.20;;;16.50;1.00;;;;;;5017716;28;20474;-64
2022/07/11 01:29:23;;;;;;;7.67;5.40;;;16.50;1.00;;;;;;5017781;28;20567;-64
2022/07/11 01:31:51;;;;;;;5.43;5.00;;;16.50;1.00;;;;;;5016765;28;20464;-64
2022/07/11 01:34:18;;;;;;;5.60;5.07;;;16.40;1.00;;;;;;5017246;28;20467;-64
2022/07/11 01:36:57;;;;;;;6.90;5.40;;;16.40;1.00;;;;;;5017264;28;20492;-64
2022/07/11 01:39:29;;;;;;;6.77;5.27;;;16.30;1.00;;;;;;5017434;28;20723;-64
2022/07/11 01:45:18;;;;;;;6.77;5.77;;;16.30;1.00;;;;;;5017305;28;20412;-64
2022/07/11 01:47:45;;;;;;;9.50;5.17;;;16.30;1.00;;;;;;5017231;28;20475;-64
2022/07/11 01:50:12;;;;;;;7.97;5.40;;;16.20;1.00;;;;;;5016505;28;20496;-64
2022/07/11 01:52:43;;;;;;;8.90;5.07;;;16.20;1.00;;;;;;5017161;28;20465;-63
2022/07/11 01:55:18;;;;;;;6.47;5.77;;;16.20;1.00;;;;;;5017391;28;20512;-64
2022/07/11 01:57:46;;;;;;;6.57;5.53;;;16.20;1.00;;;;;;5017139;28;20463;-64
2022/07/11 02:00:15;;;;;;;6.83;5.63;;;16.20;1.00;;;;;;5017269;28;20529;-64
2022/07/11 02:02:42;;;;;;;8.53;5.00;;;16.10;1.00;;;;;;5017126;28;20538;-64
2022/07/11 02:05:10;;;;;;;5.80;5.20;;;16.20;1.00;;;;;;5017044;28;20470;-64
2022/07/11 02:10:29;;;;;;;10.50;5.50;;;16.20;1.00;;;;;;5016720;28;20482;-64
2022/07/11 02:13:00;;;;;;;7.00;5.43;;;16.20;1.00;;;;;;5017099;28;20468;-63
2022/07/11 02:15:28;;;;;;;10.87;5.10;;;16.20;1.00;;;;;;5016882;28;20466;-64
2022/07/11 02:17:59;;;;;;;5.07;4.57;;;16.30;1.00;;;;;;5017001;28;20955;-63
2022/07/11 02:20:26;;;;;;;5.70;5.10;;;16.20;1.00;;;;;;5017354;28;20906;-64
2022/07/11 02:22:56;;;;;;;8.30;6.23;;;16.20;1.00;;;;;;5017092;28;20464;-64
2022/07/11 02:25:25;;;;;;;7.60;5.00;;;16.20;1.00;;;;;;5017121;28;20747;-64
2022/07/11 02:27:52;;;;;;;6.07;5.43;;;16.20;1.00;;;;;;5017202;28;20907;-64
2022/07/11 02:30:19;;;;;;;9.20;4.73;;;16.20;1.00;;;;;;5016691;28;20491;-64
2022/07/11 02:32:46;;;;;;;7.23;4.90;;;16.10;1.00;;;;;;5016587;28;20460;-64
2022/07/11 02:35:14;;;;;;;10.23;6.13;;;16.10;1.00;;;;;;5017036;28;20445;-64
2022/07/11 02:37:43;;;;;;;5.73;5.10;;;16.10;1.00;;;;;;5016770;28;20463;-64
2022/07/11 02:40:11;;;;;;;7.43;5.40;;;16.10;1.00;;;;;;5017023;28;20468;-64
2022/07/11 02:42:40;;;;;;;8.07;6.00;;;16.00;1.00;;;;;;5019636;28;20499;-64
2022/07/11 02:45:10;;;;;;;6.10;5.40;;;16.00;1.00;;;;;;5020790;28;20562;-64
2022/07/11 02:47:39;;;;;;;7.90;6.10;;;15.90;1.00;;;;;;5020087;28;20554;-63
2022/07/11 02:50:11;;;;;;;9.80;7.20;;;16.00;1.00;;;;;;5020057;28;20495;-64
2022/07/11 02:52:39;;;;;;;7.87;7.07;;;15.90;1.00;;;;;;5020639;28;20511;-64
2022/07/11 02:55:08;;;;;;;10.97;7.87;;;16.00;1.00;;;;;;5019713;28;20716;-64
2022/07/11 02:57:37;;;;;;;11.00;8.20;;;15.90;1.00;;;;;;5019507;28;20471;-64
2022/07/11 03:00:08;;;;;;;9.30;8.30;;;15.90;1.00;;;;;;5020359;28;20491;-64
2022/07/11 03:02:36;;;;;;;11.70;8.93;;;15.90;1.00;;;;;;5020664;28;20904;-64
2022/07/11 03:05:05;;;;;;;10.60;9.20;;;15.90;1.00;;;;;;5020079;28;20896;-63
2022/07/11 03:07:32;;;;;;;12.13;9.27;;;15.90;1.00;;;;;;5019888;28;20946;-63
2022/07/11 03:10:02;;;;;;;9.47;8.47;;;16.00;1.00;;;;;;5019880;28;20474;-63
2022/07/11 03:12:29;;;;;;;14.13;10.27;;;15.80;1.00;;;;;;5019969;28;20474;-63
2022/07/11 03:14:57;;;;;;;12.17;8.97;;;15.80;1.00;;;;;;5020108;28;20449;-63
2022/07/11 03:17:25;;;;;;;11.47;8.63;;;15.90;1.00;;;;;;5019893;28;20459;-63
2022/07/11 03:19:55;;;;;;;9.33;7.30;;;15.90;1.00;;;;;;5019468;28;20558;-64
2022/07/11 03:22:23;;;;;;;10.20;7.00;;;15.80;1.00;;;;;;5019583;28;20817;-63
2022/07/11 03:24:50;;;;;;;11.27;8.20;;;15.80;1.00;;;;;;5019711;28;20465;-63
2022/07/11 03:27:18;;;;;;;14.07;8.90;;;15.80;1.00;;;;;;5019801;28;20471;-63
2022/07/11 03:29:45;;;;;;;12.10;9.13;;;15.80;1.00;;;;;;5019127;28;20590;-64
2022/07/11 03:32:12;;;;;;;11.67;8.93;;;15.70;1.00;;;;;;5019544;28;20764;-63
2022/07/11 03:35:40;;;;;;;12.70;11.30;;;15.70;13.20;;;;;;5019630;28;20470;-63
2022/07/11 03:37:37;;;;;;;14.30;11.43;;;15.70;55.50;;;;;;5019111;28;20456;-63
2022/07/11 03:40:05;;;;;;;14.97;11.43;;;15.70;99.90;;;;;;5019160;28;20452;-63
2022/07/11 03:42:32;;;;;;;14.47;11.10;;;15.70;93.00;;;;;;5019810;28;20555;-63
2022/07/11 03:44:59;;;;;;;14.37;12.57;;;15.80;99.90;;;;;;5019074;28;20931;-63
2022/07/11 03:47:27;;;;;;;14.70;11.20;;;15.80;99.90;;;;;;5018959;28;20456;-64
2022/07/11 03:49:56;;;;;;;19.43;13.40;;;15.80;99.90;;;;;;5019076;28;20920;-63
2022/07/11 03:52:23;;;;;;;13.93;11.53;;;15.70;99.90;;;;;;5018796;28;20475;-64
2022/07/11 03:54:51;;;;;;;14.50;12.60;;;15.70;99.90;;;;;;5018832;28;20472;-63
2022/07/11 03:57:21;;;;;;;16.20;12.00;;;15.80;99.90;;;;;;5019282;28;20460;-63
2022/07/11 03:59:48;;;;;;;11.43;10.20;;;15.80;99.90;;;;;;5018690;28;20566;-63
2022/07/11 04:02:16;;;;;;;12.43;8.10;;;15.80;99.90;;;;;;5019019;28;20468;-63
2022/07/11 04:04:43;;;;;;;10.10;7.27;;;15.80;99.90;;;;;;5018929;28;20438;-63
2022/07/11 04:07:12;;;;;;;7.90;6.77;;;15.70;93.80;;;;;;5018994;28;20533;-63
2022/07/11 04:09:39;;;;;;;7.53;5.80;;;15.70;64.80;;;;;;5018572;28;20489;-64
2022/07/11 04:12:07;;;;;;;7.33;5.70;;;15.80;55.80;;;;;;5018838;28;20932;-63
2022/07/11 04:14:35;;;;;;;5.80;5.30;;;15.80;40.50;;;;;;5018663;28;20496;-63
2022/07/11 04:17:05;;;;;;;8.70;5.90;;;15.70;20.70;;;;;;5019166;28;20467;-63
2022/07/11 04:19:32;;;;;;;6.03;5.30;;;15.70;32.80;;;;;;5018873;28;20460;-63
2022/07/11 04:21:59;;;;;;;6.57;5.93;;;15.70;64.50;;;;;;5018755;28;20934;-63
2022/07/11 04:24:33;;;;;;;7.17;5.40;;;15.70;99.90;;;;;;5018649;28;20563;-63
2022/07/11 04:27:02;;;;;;;9.33;6.90;;;15.60;99.90;;;;;;5018659;28;20542;-63
2022/07/11 04:29:33;;;;;;;9.53;6.60;;;15.50;99.90;;;;;;5017795;28;20503;-63
2022/07/11 04:32:00;;;;;;;9.03;6.40;;;15.40;1.00;;;;;;5018864;28;20554;-63
2022/07/11 04:34:28;;;;;;;8.17;6.90;;;15.40;1.00;;;;;;5018393;28;20468;-63
2022/07/11 04:36:59;;;;;;;7.90;7.17;;;15.40;4.90;;;;;;5018519;28;20473;-63
2022/07/11 04:39:29;;;;;;;8.50;7.67;;;15.30;1.00;;;;;;5018108;28;20460;-63
2022/07/11 04:41:58;;;;;;;8.53;7.73;;;15.30;1.00;;;;;;5017663;28;20467;-63
2022/07/11 04:44:26;;;;;;;8.57;7.50;;;15.50;1.00;;;;;;5017417;28;20438;-63
2022/07/11 04:46:53;;;;;;;9.30;8.40;;;15.40;1.00;;;;;;5018077;28;20474;-63
2022/07/11 04:49:21;;;;;;;9.00;8.07;;;15.50;9.80;;;;;;5018280;28;20468;-64
2022/07/11 04:51:57;;;;;;;11.57;7.90;;;15.60;1.00;;;;;;5018192;28;20464;-63
2022/07/11 04:54:24;;;;;;;12.23;9.37;;;15.60;99.90;;;;;;5018127;28;20442;-63
2022/07/11 04:56:54;;;;;;;10.20;9.20;;;15.60;1.00;;;;;;5018222;28;20492;-63
2022/07/11 04:59:22;;;;;;;10.40;8.30;;;15.80;56.30;;;;;;5018328;28;20558;-63
2022/07/11 05:01:50;;;;;;;11.00;9.10;;;16.00;1.00;;;;;;5017571;28;20466;-63
2022/07/11 05:04:17;;;;;;;9.80;8.90;;;16.10;99.90;;;;;;5017986;28;20460;-63
2022/07/11 05:06:45;;;;;;;13.73;9.17;;;16.10;99.90;;;;;;5017899;28;20566;-63
2022/07/11 05:09:13;;;;;;;9.13;8.33;;;16.20;99.90;;;;;;5017881;28;20974;-63
2022/07/11 05:11:41;;;;;;;10.10;9.20;;;16.30;56.70;;;;;;5018119;28;20550;-63
2022/07/11 05:14:09;;;;;;;9.73;8.83;;;16.40;52.40;;;;;;5017796;28;20559;-63
2022/07/11 05:16:37;;;;;;;8.63;7.93;;;16.30;1.00;;;;;;5017637;28;20834;-63
2022/07/11 05:19:10;;;;;;;8.17;7.43;;;16.20;1.00;;;;;;5017831;28;20500;-63
2022/07/11 05:21:39;;;;;;;10.07;8.73;;;16.10;1.00;;;;;;5016458;28;20555;-63
2022/07/11 05:24:09;;;;;;;9.33;8.23;;;16.30;1.00;;;;;;5017075;28;20900;-63
2022/07/11 05:26:37;;;;;;;9.87;8.90;;;16.20;1.00;;;;;;5017755;28;20518;-64
2022/07/11 05:29:04;;;;;;;9.07;8.27;;;16.30;1.00;;;;;;5017806;28;20443;-63
2022/07/11 05:31:33;;;;;;;9.17;8.27;;;16.10;1.00;;;;;;5017028;28;20492;-63
2022/07/11 05:34:04;;;;;;;8.30;7.50;;;16.10;1.00;;;;;;5017450;28;20464;-63
2022/07/11 05:36:35;;;;;;;9.07;8.17;;;16.10;1.00;;;;;;5017478;28;20587;-63
2022/07/11 05:39:03;;;;;;;8.20;7.40;;;16.20;1.00;;;;;;5014886;28;21008;-64
2022/07/11 05:41:30;;;;;;;8.77;7.97;;;16.20;1.00;;;;;;5016376;28;20558;-63
2022/07/11 05:43:59;;;;;;;7.67;6.50;;;16.30;1.00;;;;;;5014317;28;20522;-63
2022/07/11 05:46:28;;;;;;;9.47;8.63;;;16.40;1.00;;;;;;5015526;28;20776;-63
2022/07/11 05:48:55;;;;;;;11.57;8.23;;;16.30;1.00;;;;;;5016298;28;20483;-64
2022/07/11 05:51:24;;;;;;;8.43;7.77;;;16.40;1.00;;;;;;5016615;28;20534;-61
2022/07/11 05:53:53;;;;;;;11.60;8.93;;;16.30;1.00;;;;;;5017268;28;20474;-64
2022/07/11 05:56:22;;;;;;;8.27;7.63;;;16.30;1.00;;;;;;5016124;28;20460;-64
2022/07/11 05:58:50;;;;;;;9.00;8.20;;;16.50;1.00;;;;;;5017251;28;20460;-64
2022/07/11 06:01:18;;;;;;;7.90;7.20;;;16.40;1.00;;;;;;5015949;28;20882;-63
2022/07/11 06:03:47;;;;;;;9.20;7.27;;;16.40;1.00;;;;;;5017135;28;20758;-63
2022/07/11 06:06:16;;;;;;;8.60;7.80;;;16.20;1.00;;;;;;5017282;28;20460;-64
2022/07/11 06:08:45;;;;;;;7.43;6.73;;;16.20;1.00;;;;;;5017133;28;20468;-63
2022/07/11 06:11:14;;;;;;;6.53;5.80;;;16.20;1.00;;;;;;5016584;28;20582;-63
2022/07/11 06:13:45;;;;;;;8.53;5.93;;;16.30;1.00;;;;;;5017067;28;20464;-64
2022/07/11 06:16:13;;;;;;;6.57;5.40;;;16.40;1.00;;;;;;5016942;28;20904;-63
2022/07/11 06:18:40;;;;;;;9.60;5.70;;;16.30;1.00;;;;;;5020605;28;20468;-64
2022/07/11 06:21:08;;;;;;;7.40;5.87;;;16.30;1.00;;;;;;5021143;28;20563;-63
2022/07/11 06:23:37;;;;;;;7.43;5.77;;;16.30;1.00;;;;;;5020969;28;20481;-63
2022/07/11 06:26:08;;;;;;;6.20;5.70;;;16.30;1.00;;;;;;5017092;28;20440;-63
2022/07/11 06:28:38;;;;;;;6.47;5.00;;;16.20;1.00;;;;;;5020391;28;20943;-63
2022/07/11 06:31:06;;;;;;;5.97;5.17;;;16.10;1.00;;;;;;5020795;28;20502;-63
2022/07/11 06:33:33;;;;;;;6.53;5.40;;;16.10;1.00;;;;;;5020841;28;20470;-63
2022/07/11 06:36:01;;;;;;;5.30;4.90;;;16.20;1.00;;;;;;5018254;28;20487;-63
2022/07/11 06:38:29;;;;;;;7.03;6.00;;;16.30;1.00;;;;;;5020636;28;20893;-64
2022/07/11 06:40:57;;;;;;;6.07;5.53;;;16.30;1.00;;;;;;5020741;28;20483;-63
2022/07/11 06:43:29;;;;;;;5.70;5.20;;;16.10;1.00;;;;;;5020848;28;20560;-64
2022/07/11 06:46:02;;;;;;;5.33;4.83;;;16.10;1.00;;;;;;5020521;28;20511;-63
2022/07/11 06:48:30;;;;;;;5.70;5.10;;;16.10;1.00;;;;;;5019864;28;20459;-63
2022/07/11 06:51:04;;;;;;;8.47;6.43;;;16.00;1.00;;;;;;5019163;28;20495;-63
2022/07/11 06:53:32;;;;;;;6.53;4.87;;;16.10;1.00;;;;;;5019699;28;20558;-63
2022/07/11 06:55:59;;;;;;;7.43;6.03;;;16.10;1.00;;;;;;5019915;28;20536;-63
2022/07/11 06:58:34;;;;;;;9.27;6.73;;;16.00;1.00;;;;;;5020258;28;20464;-63
2022/07/11 07:01:01;;;;;;;7.37;6.60;;;16.00;1.00;;;;;;5020311;28;20459;-63
2022/07/11 07:03:32;;;;;;;9.03;7.67;;;15.90;1.00;;;;;;5019862;28;20718;-63
2022/07/11 07:06:00;;;;;;;9.30;7.20;;;16.10;1.00;;;;;;5019857;28;20468;-63
2022/07/11 07:08:29;;;;;;;8.20;7.50;;;16.30;20.80;;;;;;5019355;28;20870;-63
2022/07/11 07:10:57;;;;;;;8.53;7.73;;;16.40;1.00;;;;;;5020312;28;20590;-63
2022/07/11 07:13:29;;;;;;;8.77;7.30;;;16.30;1.00;;;;;;5019348;28;20899;-63
2022/07/11 07:15:59;;;;;;;6.60;6.10;;;16.40;1.00;;;;;;5019563;28;20476;-63
2022/07/11 07:18:26;;;;;;;8.60;7.30;;;16.30;1.00;;;;;;5019679;28;20482;-64
2022/07/11 07:20:54;;;;;;;7.93;7.23;;;16.00;9.20;;;;;;5019866;28;20810;-63
2022/07/11 07:23:21;;;;;;;8.07;7.37;;;16.00;42.10;;;;;;5018884;28;20889;-63
2022/07/11 07:26:18;;;;;;;7.60;7.00;;;16.10;99.90;;;;;;5018743;28;20774;-63
2022/07/11 07:28:48;;;;;;;6.77;6.20;;;16.10;92.70;;;;;;5017369;28;20566;-63
2022/07/11 07:31:16;;;;;;;7.60;7.00;;;16.00;99.90;;;;;;5018532;28;20495;-63
2022/07/11 07:33:43;;;;;;;9.43;8.73;;;16.10;99.90;;;;;;5019118;28;20764;-63
2022/07/11 07:36:12;;;;;;;7.07;6.50;;;16.20;99.90;;;;;;5018228;28;20491;-63
2022/07/11 07:38:41;;;;;;;7.10;6.57;;;16.20;52.70;;;;;;5019669;28;20464;-63
2022/07/11 07:41:08;;;;;;;7.33;6.83;;;16.20;31.30;;;;;;5019515;28;20928;-63
2022/07/11 07:43:35;;;;;;;9.10;8.20;;;16.20;22.00;;;;;;5018800;28;20554;-63
2022/07/11 07:46:05;;;;;;;9.50;7.30;;;16.60;99.90;;;;;;5018356;28;20554;-64
2022/07/11 07:48:32;;;;;;;6.87;6.37;;;16.90;6.40;;;;;;5019289;28;20463;-64
2022/07/11 07:51:03;;;;;;;5.87;5.47;;;17.00;1.00;;;;;;5019506;28;20498;-64
2022/07/11 07:53:30;;;;;;;5.60;5.20;;;17.00;1.00;;;;;;5018974;28;20554;-64
2022/07/11 07:56:00;;;;;;;4.53;4.23;;;17.10;1.00;;;;;;5017128;28;20464;-64
2022/07/11 07:58:27;;;;;;;4.97;4.57;;;17.00;1.00;;;;;;5018705;28;20471;-64
2022/07/11 08:03:46;;;;;;;4.13;3.80;;;17.10;1.00;;;;;;5018241;28;20452;-64
2022/07/11 08:06:13;;;;;;;4.00;3.70;;;16.90;1.00;;;;;;5018542;28;20464;-64
2022/07/11 08:08:43;;;;;;;4.07;3.70;;;16.90;1.00;;;;;;5018941;28;20641;-64
2022/07/11 08:11:10;;;;;;;3.97;3.63;;;16.90;1.00;;;;;;5018923;28;20557;-64
2022/07/11 08:13:38;;;;;;;6.53;3.57;;;17.10;1.00;;;;;;5018710;28;20560;-64
2022/07/11 08:16:06;;;;;;;6.77;4.07;;;17.40;1.00;;;;;;5018719;28;20467;-64
2022/07/11 08:18:34;;;;;;;3.53;3.20;;;17.70;1.00;;;;;;5018368;28;20464;-64
2022/07/11 08:21:07;;;;;;;4.17;3.73;;;17.70;1.00;;;;;;5018926;28;20799;-63
2022/07/11 08:23:37;;;;;;;4.10;3.77;;;17.90;1.00;;;;;;5017859;28;20475;-64
2022/07/11 08:26:05;;;;;;;4.10;3.80;;;17.80;99.90;;;;;;5018589;28;20475;-64
2022/07/11 08:28:32;;;;;;;5.50;5.00;;;18.00;1.00;;;;;;5018578;28;20475;-64
2022/07/11 08:31:00;;;;;;;5.00;4.50;;;17.70;99.90;;;;;;5018831;28;20492;-64
2022/07/11 08:33:29;;;;;;;4.93;4.53;;;17.60;99.90;;;;;;5018279;28;20461;-64
2022/07/11 08:35:56;;;;;;;5.50;5.03;;;17.60;99.90;;;;;;5018072;28;20586;-64
2022/07/11 08:38:26;;;;;;;6.83;5.00;;;18.00;99.90;;;;;;5016820;28;20483;-63
2022/07/11 08:40:56;;;;;;;5.30;4.80;;;18.00;99.90;;;;;;5018183;28;20873;-63
2022/07/11 08:43:28;;;;;;;5.10;4.60;;;17.80;99.90;;;;;;5017691;28;20478;-64
2022/07/11 08:46:08;;;;;;;4.30;4.00;;;17.60;99.90;;;;;;5017294;28;20496;-64
2022/07/11 08:48:38;;;;;;;5.03;4.63;;;18.00;99.90;;;;;;5018219;28;20494;-63
2022/07/11 08:51:13;;;;;;;4.70;4.40;;;18.10;99.90;;;;;;5017346;28;20884;-64
2022/07/11 08:53:46;;;;;;;5.00;4.60;;;17.90;99.90;;;;;;5017398;28;20756;-64
2022/07/11 08:56:17;;;;;;;4.70;4.23;;;18.50;99.90;;;;;;5017445;28;20487;-64
2022/07/11 08:58:54;;;;;;;5.87;5.27;;;18.90;99.90;;;;;;5018259;28;20475;-64
2022/07/11 09:01:29;;;;;;;5.03;4.53;;;19.30;99.90;;;;;;5017535;28;20459;-64
2022/07/11 09:04:01;;;;;;;5.10;4.70;;;18.90;99.90;;;;;;5013492;28;20558;-64
2022/07/11 09:06:29;;;;;;;5.00;4.50;;;18.50;99.90;;;;;;5014809;28;20468;-64
2022/07/11 09:09:06;;;;;;;4.87;4.57;;;18.20;99.90;;;;;;5017213;28;20468;-64
2022/07/11 09:11:52;;;;;;;5.23;4.73;;;18.30;99.90;;;;;;5016156;28;21023;-64
2022/07/11 09:14:26;;;;;;;5.77;5.27;;;18.60;99.90;;;;;;5017435;28;20532;-64
2022/07/11 09:16:58;;;;;;;6.87;6.33;;;18.60;99.90;;;;;;5018062;28;20465;-64
2022/07/11 09:19:27;;;;;;;6.33;5.90;;;18.50;99.90;;;;;;5017896;28;20456;-64
2022/07/11 09:25:21;;;;;;;7.13;6.63;;;18.40;99.90;;;;;;5016976;28;20431;-64
2022/07/11 09:27:50;;;;;;;6.60;6.07;;;18.30;99.90;;;;;;5015987;28;20479;-63
2022/07/11 09:30:25;;;;;;;6.23;5.70;;;18.40;99.90;;;;;;5016903;28;20469;-63
2022/07/11 09:32:58;;;;;;;6.80;6.30;;;18.40;99.90;;;;;;5016806;28;20531;-64
2022/07/11 09:35:30;;;;;;;7.43;6.83;;;18.40;99.90;;;;;;5016353;28;20472;-63
2022/07/11 09:38:03;;;;;;;6.60;6.17;;;18.70;99.90;;;;;;5017069;28;20468;-64
2022/07/11 09:40:35;;;;;;;7.63;6.80;;;18.90;99.90;;;;;;5017184;28;20470;-64
2022/07/11 09:43:08;;;;;;;7.00;6.50;;;18.70;99.90;;;;;;5017400;28;20466;-65
2022/07/11 09:45:36;;;;;;;7.50;6.90;;;18.50;99.90;;;;;;5016172;28;20559;-64
2022/07/11 09:48:11;;;;;;;8.77;8.07;;;18.20;99.90;;;;;;5017056;28;20584;-63
2022/07/11 09:50:40;;;;;;;9.57;8.83;;;18.50;99.90;;;;;;5014652;28;20971;-63
2022/07/11 09:53:12;;;;;;;9.00;8.20;;;18.50;99.90;;;;;;5016926;28;21024;-64
2022/07/11 09:55:46;;;;;;;8.93;8.33;;;19.00;99.90;;;;;;5016331;28;20900;-63
2022/07/11 09:58:14;;;;;;;8.20;7.50;;;19.20;99.90;;;;;;5017293;28;20472;-63
2022/07/11 10:00:45;;;;;;;7.40;6.90;;;19.40;99.90;;;;;;5015851;28;20480;-63
2022/07/11 10:03:13;;;;;;;9.60;8.67;;;19.00;99.90;;;;;;5017147;28;20554;-63
2022/07/11 10:05:44;;;;;;;9.43;8.70;;;19.00;99.90;;;;;;5017003;28;20546;-63
2022/07/11 10:08:12;;;;;;;8.80;8.10;;;19.20;99.90;;;;;;5016919;28;20468;-64
2022/07/11 10:10:46;;;;;;;9.53;8.50;;;19.50;99.90;;;;;;5017119;28;20964;-63
2022/07/11 10:13:13;;;;;;;10.23;9.43;;;19.30;99.90;;;;;;5017201;28;20495;-64
2022/07/11 10:15:44;;;;;;;11.23;10.17;;;18.80;99.90;;;;;;5016817;28;20560;-64
2022/07/11 10:18:17;;;;;;;11.60;10.50;;;18.80;99.90;;;;;;5017290;28;20509;-63
2022/07/11 10:20:57;;;;;;;10.60;9.80;;;18.40;99.90;;;;;;5016835;28;20460;-64
2022/07/11 10:23:29;;;;;;;11.50;10.60;;;18.40;99.90;;;;;;5017161;28;20594;-64
2022/07/11 10:26:04;;;;;;;12.77;11.57;;;18.40;99.90;;;;;;5016776;28;20977;-64
2022/07/11 10:28:42;;;;;;;11.53;10.63;;;18.50;99.90;;;;;;5016289;28;20489;-63
2022/07/11 10:31:19;;;;;;;10.90;10.10;;;18.60;99.90;;;;;;5014585;28;20888;-63
2022/07/11 10:34:04;;;;;;;11.50;10.60;;;18.60;99.90;;;;;;5016438;28;20468;-64
2022/07/11 10:36:43;;;;;;;10.37;9.57;;;18.80;99.90;;;;;;5017880;28;20495;-64
2022/07/11 10:39:21;;;;;;;10.53;9.73;;;18.70;99.90;;;;;;5026838;28;20463;-64
2022/07/11 10:41:57;;;;;;;13.40;12.40;;;18.60;99.90;;;;;;5020969;28;20452;-64
2022/07/11 10:44:26;;;;;;;14.43;13.33;;;18.50;99.90;;;;;;5016047;28;20460;-63
2022/07/11 10:46:54;;;;;;;14.73;13.50;;;18.20;99.90;;;;;;5015857;28;20467;-64
2022/07/11 10:49:38;;;;;;;13.97;12.90;;;18.10;99.90;;;;;;5015286;28;20835;-63
2022/07/11 10:52:12;;;;;;;14.40;13.20;;;18.00;99.90;;;;;;5016286;28;20952;-63
2022/07/11 10:55:06;;;;;;;12.90;11.90;;;18.10;99.90;;;;;;5016658;28;20464;-63
2022/07/11 10:57:45;;;;;;;13.83;12.57;;;18.10;99.90;;;;;;5016368;28;20468;-63
2022/07/11 11:00:20;;;;;;;13.10;12.10;;;18.30;99.90;;;;;;5016350;28;20464;-64
2022/07/11 11:03:05;;;;;;;13.57;12.37;;;18.50;99.90;;;;;;5017621;28;20463;-63
2022/07/11 11:05:54;;;;;;;12.43;11.43;;;18.80;99.90;;;;;;5019304;28;20445;-63
2022/07/11 11:08:48;;;;;;;14.30;13.20;;;19.10;99.90;;;;;;5020237;28;20566;-63
2022/07/11 11:11:43;;;;;;;13.67;12.57;;;19.50;99.90;;;;;;5020387;28;20467;-63
2022/07/11 11:14:30;;;;;;;13.80;12.50;;;19.80;99.90;;;;;;5018730;28;20530;-64
2022/07/11 11:17:36;;;;;;;13.07;11.97;;;19.70;99.90;;;;;;5020300;28;20471;-63
2022/07/11 11:20:10;;;;;;;12.70;11.70;;;19.70;99.90;;;;;;5019720;28;20464;-63
2022/07/11 11:22:38;;;;;;;13.40;12.10;;;19.70;99.90;;;;;;5019684;28;20464;-63
2022/07/11 11:25:08;;;;;;;15.37;13.77;;;19.90;99.90;;;;;;5018778;28;20562;-63
2022/07/11 11:27:37;;;;;;;13.20;12.10;;;20.50;99.90;;;;;;5017350;28;20480;-63
2022/07/11 11:30:10;;;;;;;13.40;12.30;;;20.80;99.90;;;;;;5019773;28;20559;-64
2022/07/11 11:32:37;;;;;;;12.13;11.13;;;21.20;99.90;;;;;;5024392;28;20491;-63
2022/07/11 11:35:06;;;;;;;13.50;12.40;;;21.40;99.90;;;;;;5019789;28;20892;-64
2022/07/11 11:37:35;;;;;;;12.03;11.13;;;21.20;99.90;;;;;;5019292;28;20495;-63
2022/07/11 11:40:02;;;;;;;12.03;11.03;;;21.00;99.90;;;;;;5019657;28;20858;-63
2022/07/11 11:42:30;;;;;;;11.33;10.40;;;20.60;99.90;;;;;;5019395;28;20492;-64
2022/07/11 11:45:00;;;;;;;11.83;10.93;;;20.20;99.90;;;;;;5017980;28;20472;-63
2022/07/11 11:47:32;;;;;;;11.20;10.20;;;19.60;99.90;;;;;;5001597;28;20901;-62
2022/07/11 11:49:59;;;;;;;12.20;11.13;;;19.20;99.90;;;;;;4999469;28;20469;-61
2022/07/11 11:52:29;;;;;;;11.07;10.17;;;18.70;99.90;;;;;;4998243;28;20500;-64
2022/07/11 11:55:04;;;;;;;12.57;11.47;;;18.70;99.90;;;;;;5001660;28;20469;-64
2022/07/11 11:57:40;;;;;;;12.07;11.07;;;18.90;99.90;;;;;;4999493;28;20471;-63
2022/07/11 12:00:29;;;;;;;11.07;10.07;;;19.00;99.90;;;;;;4998505;28;20506;-64
2022/07/11 12:02:58;;;;;;;10.03;9.23;;;19.00;99.90;;;;;;5010856;28;20459;-64
2022/07/11 12:05:27;;;;;;;9.63;8.90;;;19.30;99.90;;;;;;5037199;28;20960;-64
2022/07/11 12:07:58;;;;;;;10.77;9.77;;;19.80;99.90;;;;;;5036675;28;20470;-63
2022/07/11 12:10:25;;;;;;;9.70;8.90;;;20.10;99.90;;;;;;5037886;28;20522;-64
2022/07/11 12:12:53;;;;;;;9.33;8.63;;;20.10;99.90;;;;;;5007126;28;20530;-64
2022/07/11 12:15:27;;;;;;;10.50;9.57;;;20.40;99.90;;;;;;4998427;28;20507;-64
2022/07/11 12:18:00;;;;;;;9.83;9.03;;;20.80;99.90;;;;;;4998495;28;20446;-64
2022/07/11 12:20:42;;;;;;;9.40;8.60;;;20.80;99.90;;;;;;4998496;28;20469;-64
2022/07/11 12:23:12;;;;;;;9.33;8.50;;;20.70;99.90;;;;;;4999230;28;20435;-63
2022/07/11 12:25:40;;;;;;;9.53;8.83;;;20.50;99.90;;;;;;4998361;28;20465;-63
2022/07/11 12:28:09;;;;;;;10.70;9.80;;;19.50;99.90;;;;;;4997891;28;20488;-63
2022/07/11 12:30:36;;;;;;;10.67;9.87;;;19.70;99.90;;;;;;4996657;28;20472;-63
2022/07/11 12:33:09;;;;;;;10.47;9.67;;;20.10;99.90;;;;;;4998216;28;20494;-63
2022/07/11 12:35:38;;;;;;;9.13;8.33;;;20.30;99.90;;;;;;4998134;28;20463;-63
2022/07/11 12:38:05;;;;;;;9.10;8.40;;;20.40;99.90;;;;;;4999100;28;20494;-64
2022/07/11 12:40:32;;;;;;;10.17;9.37;;;20.80;99.90;;;;;;4998779;28;20575;-63
2022/07/11 12:44:57;;;;;;;8.63;7.93;;;21.00;99.90;;;;;;4997041;28;20465;-62
2022/07/11 12:46:02;;;;;;;9.47;8.87;;;20.50;99.90;;;;;;4998474;28;20948;-63
2022/07/11 12:48:42;;;;;;;9.40;8.60;;;20.30;99.90;;;;;;4997675;28;20460;-63
2022/07/11 12:51:12;;;;;;;8.63;7.93;;;20.20;99.90;;;;;;4997908;28;20465;-63
2022/07/11 12:53:42;;;;;;;8.70;8.00;;;20.10;99.90;;;;;;4998421;28;20532;-63
2022/07/11 12:56:24;;;;;;;8.97;8.27;;;20.10;99.90;;;;;;4998135;28;20847;-63
2022/07/11 12:58:51;;;;;;;10.17;9.20;;;19.80;99.90;;;;;;4998266;28;20563;-64
2022/07/11 13:01:25;;;;;;;9.87;9.07;;;20.50;99.90;;;;;;4998280;28;20555;-63
2022/07/11 13:03:57;;;;;;;8.90;8.20;;;21.20;99.90;;;;;;4998229;28;20465;-64
2022/07/11 13:09:15;;;;;;;9.10;8.40;;;22.40;99.90;;;;;;4997847;28;20437;-63
2022/07/11 13:11:45;;;;;;;9.10;8.40;;;22.80;99.90;;;;;;4998157;28;20465;-64
2022/07/11 13:16:57;;;;;;;8.70;8.10;;;22.60;99.90;;;;;;4997580;28;20484;-64
2022/07/11 13:19:30;;;;;;;9.43;8.73;;;22.90;99.90;;;;;;4997943;28;20477;-64
2022/07/11 13:22:02;;;;;;;8.13;7.63;;;23.30;99.90;;;;;;4998129;28;20460;-64